KARB

Ann Arbor Municipal Airport

Ann Arbor, Michigan, USA
METAR KARB 152153Z 17005KT 10SM SCT060 SCT075 28/20 A2997 RMK AO2 SLP143 T02830200
Observed Flight Rules
Aug-15 @ 21:53 UTC (33 minutes ago) Visual Flight Rules
Wind Visibility Clouds
170° at 5 knots 10 miles
  • Scattered at 6,000' AGL
  • Scattered at 7,500' AGL
Temperatures Readings
Current 28°C / 82°F
Dewpoint 20°C / 68°F
Humidity 62%
Altimeter 29.97" Hg
Pressure 1014.3 hPa
Elevation 251
METAR KARB 152153Z 17005KT 10SM SCT060 SCT075 28/20 A2997 RMK AO2 SLP143 T02830200
Observed Flight Rules
Aug-15 @ 21:53 UTC
(33 minutes ago)
VFR
Wind Visibility
170° at 5 knots 10 miles
Clouds
  • Scattered at 6,000' AGL
  • Scattered at 7,500' AGL
Temperature Dewpoint
28°C / 82°F 20°C / 68°F
Humidity Altimeter Pressure
62% 29.97" Hg 1014.3 hPa